sensor_id;sensor_type;location;lat;lon;timestamp;P1;durP1;ratioP1;P2;durP2;ratioP2
19434;SDS011;9853;50.848;4.108;2022-08-16T00:01:24;12.93;;;7.63;;
19434;SDS011;9853;50.848;4.108;2022-08-16T00:03:25;14.40;;;7.60;;
19434;SDS011;9853;50.848;4.108;2022-08-16T00:05:26;16.70;;;8.75;;
19434;SDS011;9853;50.848;4.108;2022-08-16T00:07:28;15.13;;;7.72;;
19434;SDS011;9853;50.848;4.108;2022-08-16T00:09:29;11.13;;;7.35;;
19434;SDS011;9853;50.848;4.108;2022-08-16T00:11:30;12.18;;;7.80;;
19434;SDS011;9853;50.848;4.108;2022-08-16T00:13:31;9.63;;;7.78;;
19434;SDS011;9853;50.848;4.108;2022-08-16T00:15:37;14.52;;;7.85;;
19434;SDS011;9853;50.848;4.108;2022-08-16T00:17:41;13.43;;;8.05;;
19434;SDS011;9853;50.848;4.108;2022-08-16T00:19:42;11.50;;;7.97;;
19434;SDS011;9853;50.848;4.108;2022-08-16T00:21:43;13.23;;;7.85;;
19434;SDS011;9853;50.848;4.108;2022-08-16T00:23:45;12.85;;;9.00;;
19434;SDS011;9853;50.848;4.108;2022-08-16T00:25:46;12.55;;;7.85;;
19434;SDS011;9853;50.848;4.108;2022-08-16T00:27:47;12.32;;;8.90;;
19434;SDS011;9853;50.848;4.108;2022-08-16T00:29:49;11.23;;;8.15;;
19434;SDS011;9853;50.848;4.108;2022-08-16T00:31:50;13.18;;;9.05;;
19434;SDS011;9853;50.848;4.108;2022-08-16T00:33:51;14.82;;;8.63;;
19434;SDS011;9853;50.848;4.108;2022-08-16T00:35:52;10.23;;;8.35;;
19434;SDS011;9853;50.848;4.108;2022-08-16T00:37:53;15.60;;;8.63;;
19434;SDS011;9853;50.848;4.108;2022-08-16T00:39:57;17.45;;;8.55;;
19434;SDS011;9853;50.848;4.108;2022-08-16T00:41:58;11.63;;;8.40;;
19434;SDS011;9853;50.848;4.108;2022-08-16T00:43:59;14.55;;;8.88;;
19434;SDS011;9853;50.848;4.108;2022-08-16T00:46:11;15.52;;;8.82;;
19434;SDS011;9853;50.848;4.108;2022-08-16T00:48:24;15.98;;;8.48;;
19434;SDS011;9853;50.848;4.108;2022-08-16T00:50:27;12.10;;;8.73;;
19434;SDS011;9853;50.848;4.108;2022-08-16T00:52:30;13.48;;;8.93;;
19434;SDS011;9853;50.848;4.108;2022-08-16T00:54:31;18.33;;;9.45;;
19434;SDS011;9853;50.848;4.108;2022-08-16T00:56:33;16.30;;;8.93;;
19434;SDS011;9853;50.848;4.108;2022-08-16T00:58:38;13.57;;;8.80;;
19434;SDS011;9853;50.848;4.108;2022-08-16T01:00:41;13.15;;;8.45;;
19434;SDS011;9853;50.848;4.108;2022-08-16T01:02:45;13.15;;;8.82;;
19434;SDS011;9853;50.848;4.108;2022-08-16T01:04:46;15.27;;;8.00;;
19434;SDS011;9853;50.848;4.108;2022-08-16T01:06:47;9.95;;;7.85;;
19434;SDS011;9853;50.848;4.108;2022-08-16T01:08:52;10.82;;;8.15;;
19434;SDS011;9853;50.848;4.108;2022-08-16T01:10:54;10.07;;;7.80;;
19434;SDS011;9853;50.848;4.108;2022-08-16T01:12:57;17.98;;;8.00;;
19434;SDS011;9853;50.848;4.108;2022-08-16T01:14:59;15.30;;;8.07;;
19434;SDS011;9853;50.848;4.108;2022-08-16T01:17:01;16.33;;;8.40;;
19434;SDS011;9853;50.848;4.108;2022-08-16T01:19:19;10.77;;;7.85;;
19434;SDS011;9853;50.848;4.108;2022-08-16T01:21:38;13.23;;;8.43;;
19434;SDS011;9853;50.848;4.108;2022-08-16T01:26:08;12.80;;;8.60;;
19434;SDS011;9853;50.848;4.108;2022-08-16T01:28:10;12.35;;;8.90;;
19434;SDS011;9853;50.848;4.108;2022-08-16T01:30:15;14.05;;;8.65;;
19434;SDS011;9853;50.848;4.108;2022-08-16T01:32:20;12.27;;;8.13;;
19434;SDS011;9853;50.848;4.108;2022-08-16T01:34:21;15.20;;;7.90;;
19434;SDS011;9853;50.848;4.108;2022-08-16T01:36:22;12.82;;;8.63;;
19434;SDS011;9853;50.848;4.108;2022-08-16T01:38:26;12.30;;;8.70;;
19434;SDS011;9853;50.848;4.108;2022-08-16T01:40:34;12.32;;;8.18;;
19434;SDS011;9853;50.848;4.108;2022-08-16T01:42:35;16.63;;;9.20;;
19434;SDS011;9853;50.848;4.108;2022-08-16T01:44:37;15.38;;;9.30;;
19434;SDS011;9853;50.848;4.108;2022-08-16T01:46:40;15.20;;;8.75;;
19434;SDS011;9853;50.848;4.108;2022-08-16T01:48:46;13.25;;;9.20;;
19434;SDS011;9853;50.848;4.108;2022-08-16T01:50:47;11.75;;;8.20;;
19434;SDS011;9853;50.848;4.108;2022-08-16T01:52:49;16.05;;;9.05;;
19434;SDS011;9853;50.848;4.108;2022-08-16T01:55:00;15.20;;;9.57;;
19434;SDS011;9853;50.848;4.108;2022-08-16T01:57:05;9.95;;;8.30;;
19434;SDS011;9853;50.848;4.108;2022-08-16T01:59:09;11.60;;;8.40;;
19434;SDS011;9853;50.848;4.108;2022-08-16T02:01:12;19.02;;;9.95;;
19434;SDS011;9853;50.848;4.108;2022-08-16T02:03:13;17.23;;;9.07;;
19434;SDS011;9853;50.848;4.108;2022-08-16T02:05:14;13.38;;;8.43;;
19434;SDS011;9853;50.848;4.108;2022-08-16T02:07:15;14.35;;;8.95;;
19434;SDS011;9853;50.848;4.108;2022-08-16T02:09:19;11.38;;;8.50;;
19434;SDS011;9853;50.848;4.108;2022-08-16T02:11:24;12.93;;;8.68;;
19434;SDS011;9853;50.848;4.108;2022-08-16T02:13:26;13.75;;;9.15;;
19434;SDS011;9853;50.848;4.108;2022-08-16T02:15:27;13.65;;;9.32;;
19434;SDS011;9853;50.848;4.108;2022-08-16T02:17:31;14.05;;;9.93;;
19434;SDS011;9853;50.848;4.108;2022-08-16T02:19:32;14.90;;;9.60;;
19434;SDS011;9853;50.848;4.108;2022-08-16T02:21:35;16.08;;;9.57;;
19434;SDS011;9853;50.848;4.108;2022-08-16T02:23:36;14.70;;;10.00;;
19434;SDS011;9853;50.848;4.108;2022-08-16T02:25:37;13.57;;;10.27;;
19434;SDS011;9853;50.848;4.108;2022-08-16T02:27:39;15.68;;;10.73;;
19434;SDS011;9853;50.848;4.108;2022-08-16T02:29:42;12.63;;;10.60;;
19434;SDS011;9853;50.848;4.108;2022-08-16T02:31:46;14.50;;;10.85;;
19434;SDS011;9853;50.848;4.108;2022-08-16T02:33:48;18.40;;;10.77;;
19434;SDS011;9853;50.848;4.108;2022-08-16T02:36:00;16.95;;;10.68;;
19434;SDS011;9853;50.848;4.108;2022-08-16T02:38:03;17.48;;;11.07;;
19434;SDS011;9853;50.848;4.108;2022-08-16T02:40:04;21.30;;;11.52;;
19434;SDS011;9853;50.848;4.108;2022-08-16T02:42:05;22.55;;;11.68;;
19434;SDS011;9853;50.848;4.108;2022-08-16T02:44:06;22.05;;;11.05;;
19434;SDS011;9853;50.848;4.108;2022-08-16T02:46:10;12.43;;;10.20;;
19434;SDS011;9853;50.848;4.108;2022-08-16T02:48:11;17.10;;;12.07;;
19434;SDS011;9853;50.848;4.108;2022-08-16T02:50:12;15.15;;;11.48;;
19434;SDS011;9853;50.848;4.108;2022-08-16T02:52:13;13.52;;;11.02;;
19434;SDS011;9853;50.848;4.108;2022-08-16T02:54:15;17.50;;;11.55;;
19434;SDS011;9853;50.848;4.108;2022-08-16T02:56:17;16.27;;;11.32;;
19434;SDS011;9853;50.848;4.108;2022-08-16T02:58:19;17.98;;;11.68;;
19434;SDS011;9853;50.848;4.108;2022-08-16T03:00:22;14.85;;;10.77;;
19434;SDS011;9853;50.848;4.108;2022-08-16T03:02:23;20.45;;;12.07;;
19434;SDS011;9853;50.848;4.108;2022-08-16T03:04:24;19.02;;;11.50;;
19434;SDS011;9853;50.848;4.108;2022-08-16T03:06:26;17.20;;;12.48;;
19434;SDS011;9853;50.848;4.108;2022-08-16T03:08:31;17.75;;;12.00;;
19434;SDS011;9853;50.848;4.108;2022-08-16T03:10:32;13.73;;;10.27;;
19434;SDS011;9853;50.848;4.108;2022-08-16T03:12:33;15.32;;;11.38;;
19434;SDS011;9853;50.848;4.108;2022-08-16T03:14:34;18.05;;;11.88;;
19434;SDS011;9853;50.848;4.108;2022-08-16T03:16:37;17.08;;;12.40;;
19434;SDS011;9853;50.848;4.108;2022-08-16T03:18:38;17.13;;;11.95;;
19434;SDS011;9853;50.848;4.108;2022-08-16T03:20:41;17.25;;;12.68;;
19434;SDS011;9853;50.848;4.108;2022-08-16T03:22:43;16.02;;;11.63;;
19434;SDS011;9853;50.848;4.108;2022-08-16T03:24:46;15.85;;;12.30;;
19434;SDS011;9853;50.848;4.108;2022-08-16T03:26:47;16.23;;;12.55;;
19434;SDS011;9853;50.848;4.108;2022-08-16T03:28:47;14.60;;;12.00;;
19434;SDS011;9853;50.848;4.108;2022-08-16T03:30:49;21.50;;;12.55;;
19434;SDS011;9853;50.848;4.108;2022-08-16T03:32:51;21.10;;;12.40;;
19434;SDS011;9853;50.848;4.108;2022-08-16T03:34:54;18.13;;;12.57;;
19434;SDS011;9853;50.848;4.108;2022-08-16T03:36:56;19.67;;;12.75;;
19434;SDS011;9853;50.848;4.108;2022-08-16T03:38:57;15.45;;;12.23;;
19434;SDS011;9853;50.848;4.108;2022-08-16T03:40:58;18.55;;;12.20;;
19434;SDS011;9853;50.848;4.108;2022-08-16T03:43:02;19.55;;;11.75;;
19434;SDS011;9853;50.848;4.108;2022-08-16T03:45:06;22.38;;;12.05;;
19434;SDS011;9853;50.848;4.108;2022-08-16T03:47:09;17.27;;;12.95;;
19434;SDS011;9853;50.848;4.108;2022-08-16T03:49:10;19.58;;;12.73;;
19434;SDS011;9853;50.848;4.108;2022-08-16T03:51:11;17.85;;;12.57;;
19434;SDS011;9853;50.848;4.108;2022-08-16T03:53:18;16.65;;;11.77;;
19434;SDS011;9853;50.848;4.108;2022-08-16T03:55:19;14.82;;;11.98;;
19434;SDS011;9853;50.848;4.108;2022-08-16T03:57:20;17.92;;;12.48;;
19434;SDS011;9853;50.848;4.108;2022-08-16T03:59:21;20.95;;;12.55;;
19434;SDS011;9853;50.848;4.108;2022-08-16T04:01:24;19.17;;;13.63;;
19434;SDS011;9853;50.848;4.108;2022-08-16T04:03:26;19.42;;;12.93;;
19434;SDS011;9853;50.848;4.108;2022-08-16T04:05:27;18.75;;;12.93;;
19434;SDS011;9853;50.848;4.108;2022-08-16T04:07:28;18.63;;;12.52;;
19434;SDS011;9853;50.848;4.108;2022-08-16T04:09:29;19.60;;;12.40;;
19434;SDS011;9853;50.848;4.108;2022-08-16T04:11:31;17.90;;;13.10;;
19434;SDS011;9853;50.848;4.108;2022-08-16T04:13:32;19.55;;;13.13;;
19434;SDS011;9853;50.848;4.108;2022-08-16T04:15:34;17.73;;;12.80;;
19434;SDS011;9853;50.848;4.108;2022-08-16T04:17:45;18.20;;;12.65;;
19434;SDS011;9853;50.848;4.108;2022-08-16T04:19:46;20.23;;;13.05;;
19434;SDS011;9853;50.848;4.108;2022-08-16T04:21:49;19.88;;;13.88;;
19434;SDS011;9853;50.848;4.108;2022-08-16T04:23:55;18.35;;;12.30;;
19434;SDS011;9853;50.848;4.108;2022-08-16T04:25:57;20.92;;;12.65;;
19434;SDS011;9853;50.848;4.108;2022-08-16T04:27:57;15.90;;;11.50;;
19434;SDS011;9853;50.848;4.108;2022-08-16T04:29:59;19.90;;;13.07;;
19434;SDS011;9853;50.848;4.108;2022-08-16T04:32:01;21.25;;;13.45;;
19434;SDS011;9853;50.848;4.108;2022-08-16T04:34:06;14.77;;;10.70;;
19434;SDS011;9853;50.848;4.108;2022-08-16T04:36:07;19.10;;;12.18;;
19434;SDS011;9853;50.848;4.108;2022-08-16T04:38:09;18.50;;;11.63;;
19434;SDS011;9853;50.848;4.108;2022-08-16T04:40:15;14.60;;;11.50;;
19434;SDS011;9853;50.848;4.108;2022-08-16T04:42:17;17.35;;;11.88;;
19434;SDS011;9853;50.848;4.108;2022-08-16T04:44:21;17.27;;;11.50;;
19434;SDS011;9853;50.848;4.108;2022-08-16T04:46:22;16.33;;;11.10;;
19434;SDS011;9853;50.848;4.108;2022-08-16T04:48:22;14.82;;;11.23;;
19434;SDS011;9853;50.848;4.108;2022-08-16T04:50:29;21.02;;;11.65;;
19434;SDS011;9853;50.848;4.108;2022-08-16T04:52:40;20.63;;;12.32;;
19434;SDS011;9853;50.848;4.108;2022-08-16T04:54:43;17.83;;;12.00;;
19434;SDS011;9853;50.848;4.108;2022-08-16T04:56:44;14.02;;;11.73;;
19434;SDS011;9853;50.848;4.108;2022-08-16T04:58:44;18.73;;;12.18;;
19434;SDS011;9853;50.848;4.108;2022-08-16T05:00:45;17.67;;;12.52;;
19434;SDS011;9853;50.848;4.108;2022-08-16T05:02:51;15.82;;;12.20;;
19434;SDS011;9853;50.848;4.108;2022-08-16T05:04:53;15.50;;;11.48;;
19434;SDS011;9853;50.848;4.108;2022-08-16T05:06:54;17.63;;;12.20;;
19434;SDS011;9853;50.848;4.108;2022-08-16T05:09:27;17.30;;;11.93;;
19434;SDS011;9853;50.848;4.108;2022-08-16T05:11:28;15.52;;;11.23;;
19434;SDS011;9853;50.848;4.108;2022-08-16T05:13:30;19.90;;;12.20;;
19434;SDS011;9853;50.848;4.108;2022-08-16T05:15:34;19.15;;;12.23;;
19434;SDS011;9853;50.848;4.108;2022-08-16T05:17:35;20.75;;;12.52;;
19434;SDS011;9853;50.848;4.108;2022-08-16T05:19:41;28.23;;;12.38;;
19434;SDS011;9853;50.848;4.108;2022-08-16T05:21:47;37.70;;;12.88;;
19434;SDS011;9853;50.848;4.108;2022-08-16T05:23:49;25.15;;;11.60;;
19434;SDS011;9853;50.848;4.108;2022-08-16T05:25:50;26.58;;;12.50;;
19434;SDS011;9853;50.848;4.108;2022-08-16T05:27:51;23.92;;;12.43;;
19434;SDS011;9853;50.848;4.108;2022-08-16T05:29:55;23.60;;;11.75;;
19434;SDS011;9853;50.848;4.108;2022-08-16T05:31:56;23.80;;;12.57;;
19434;SDS011;9853;50.848;4.108;2022-08-16T05:33:57;20.13;;;12.35;;
19434;SDS011;9853;50.848;4.108;2022-08-16T05:35:59;18.52;;;12.02;;
19434;SDS011;9853;50.848;4.108;2022-08-16T05:38:04;15.82;;;12.30;;
19434;SDS011;9853;50.848;4.108;2022-08-16T05:40:07;19.52;;;12.50;;
19434;SDS011;9853;50.848;4.108;2022-08-16T05:42:10;19.52;;;11.60;;
19434;SDS011;9853;50.848;4.108;2022-08-16T05:44:13;19.33;;;12.30;;
19434;SDS011;9853;50.848;4.108;2022-08-16T05:46:15;18.13;;;11.60;;
19434;SDS011;9853;50.848;4.108;2022-08-16T05:48:17;17.00;;;12.10;;
19434;SDS011;9853;50.848;4.108;2022-08-16T05:50:28;17.52;;;11.00;;
19434;SDS011;9853;50.848;4.108;2022-08-16T05:52:29;19.10;;;12.60;;
19434;SDS011;9853;50.848;4.108;2022-08-16T05:54:30;20.25;;;12.35;;
19434;SDS011;9853;50.848;4.108;2022-08-16T05:56:33;19.10;;;11.82;;
19434;SDS011;9853;50.848;4.108;2022-08-16T05:58:34;27.23;;;12.45;;
19434;SDS011;9853;50.848;4.108;2022-08-16T06:00:35;15.98;;;12.30;;
19434;SDS011;9853;50.848;4.108;2022-08-16T06:02:36;22.88;;;11.77;;
19434;SDS011;9853;50.848;4.108;2022-08-16T06:04:37;19.98;;;11.95;;
19434;SDS011;9853;50.848;4.108;2022-08-16T06:06:46;25.35;;;12.30;;
19434;SDS011;9853;50.848;4.108;2022-08-16T06:08:47;22.75;;;11.35;;
19434;SDS011;9853;50.848;4.108;2022-08-16T06:10:49;19.50;;;11.43;;
19434;SDS011;9853;50.848;4.108;2022-08-16T06:12:50;22.50;;;11.70;;
19434;SDS011;9853;50.848;4.108;2022-08-16T06:14:51;23.33;;;11.38;;
19434;SDS011;9853;50.848;4.108;2022-08-16T06:16:53;18.63;;;11.05;;
19434;SDS011;9853;50.848;4.108;2022-08-16T06:18:54;19.27;;;11.82;;
19434;SDS011;9853;50.848;4.108;2022-08-16T06:20:55;19.10;;;12.13;;
19434;SDS011;9853;50.848;4.108;2022-08-16T06:22:58;16.58;;;11.02;;
19434;SDS011;9853;50.848;4.108;2022-08-16T06:25:05;20.00;;;11.00;;
19434;SDS011;9853;50.848;4.108;2022-08-16T06:27:06;21.98;;;12.07;;
19434;SDS011;9853;50.848;4.108;2022-08-16T06:29:07;20.70;;;10.45;;
19434;SDS011;9853;50.848;4.108;2022-08-16T06:31:12;18.73;;;11.40;;
19434;SDS011;9853;50.848;4.108;2022-08-16T06:33:18;19.60;;;11.25;;
19434;SDS011;9853;50.848;4.108;2022-08-16T06:35:19;14.10;;;11.23;;
19434;SDS011;9853;50.848;4.108;2022-08-16T06:37:22;14.88;;;11.43;;
19434;SDS011;9853;50.848;4.108;2022-08-16T06:39:23;21.10;;;10.52;;
19434;SDS011;9853;50.848;4.108;2022-08-16T06:41:29;17.65;;;10.65;;
19434;SDS011;9853;50.848;4.108;2022-08-16T06:43:40;16.15;;;11.68;;
19434;SDS011;9853;50.848;4.108;2022-08-16T06:45:46;17.95;;;11.20;;
19434;SDS011;9853;50.848;4.108;2022-08-16T06:48:08;16.10;;;11.27;;
19434;SDS011;9853;50.848;4.108;2022-08-16T06:50:10;19.80;;;11.32;;
19434;SDS011;9853;50.848;4.108;2022-08-16T06:52:16;19.02;;;10.73;;
19434;SDS011;9853;50.848;4.108;2022-08-16T06:54:18;18.40;;;10.18;;
19434;SDS011;9853;50.848;4.108;2022-08-16T06:56:19;21.42;;;10.90;;
19434;SDS011;9853;50.848;4.108;2022-08-16T06:58:31;27.45;;;11.38;;
19434;SDS011;9853;50.848;4.108;2022-08-16T07:00:38;20.25;;;10.30;;
19434;SDS011;9853;50.848;4.108;2022-08-16T07:02:43;19.90;;;9.32;;
19434;SDS011;9853;50.848;4.108;2022-08-16T07:04:45;17.58;;;9.70;;
19434;SDS011;9853;50.848;4.108;2022-08-16T07:06:51;11.10;;;8.93;;
19434;SDS011;9853;50.848;4.108;2022-08-16T07:08:52;17.38;;;8.90;;
19434;SDS011;9853;50.848;4.108;2022-08-16T07:10:54;14.88;;;8.93;;
19434;SDS011;9853;50.848;4.108;2022-08-16T07:12:56;18.05;;;8.55;;
19434;SDS011;9853;50.848;4.108;2022-08-16T07:14:57;10.10;;;7.90;;
19434;SDS011;9853;50.848;4.108;2022-08-16T07:16:59;14.10;;;7.68;;
19434;SDS011;9853;50.848;4.108;2022-08-16T07:19:01;14.65;;;7.68;;
19434;SDS011;9853;50.848;4.108;2022-08-16T07:21:06;12.65;;;7.18;;
19434;SDS011;9853;50.848;4.108;2022-08-16T07:23:09;13.13;;;7.78;;
19434;SDS011;9853;50.848;4.108;2022-08-16T07:25:18;11.40;;;7.40;;
19434;SDS011;9853;50.848;4.108;2022-08-16T07:27:19;12.00;;;7.80;;
19434;SDS011;9853;50.848;4.108;2022-08-16T07:29:23;10.85;;;6.60;;
19434;SDS011;9853;50.848;4.108;2022-08-16T07:31:25;13.98;;;6.90;;
19434;SDS011;9853;50.848;4.108;2022-08-16T07:33:26;15.48;;;7.13;;
19434;SDS011;9853;50.848;4.108;2022-08-16T07:35:27;9.00;;;6.60;;
19434;SDS011;9853;50.848;4.108;2022-08-16T07:37:27;12.70;;;6.93;;
19434;SDS011;9853;50.848;4.108;2022-08-16T07:39:45;10.27;;;6.70;;
19434;SDS011;9853;50.848;4.108;2022-08-16T07:41:46;14.23;;;6.55;;
19434;SDS011;9853;50.848;4.108;2022-08-16T07:43:47;11.75;;;6.35;;
19434;SDS011;9853;50.848;4.108;2022-08-16T07:45:50;9.88;;;5.97;;
19434;SDS011;9853;50.848;4.108;2022-08-16T07:47:51;8.82;;;5.47;;
19434;SDS011;9853;50.848;4.108;2022-08-16T07:49:53;11.65;;;6.50;;
19434;SDS011;9853;50.848;4.108;2022-08-16T07:51:54;12.02;;;6.15;;
19434;SDS011;9853;50.848;4.108;2022-08-16T07:53:55;13.57;;;6.00;;
19434;SDS011;9853;50.848;4.108;2022-08-16T07:55:57;11.80;;;5.78;;
19434;SDS011;9853;50.848;4.108;2022-08-16T07:58:08;9.73;;;5.70;;
19434;SDS011;9853;50.848;4.108;2022-08-16T08:00:09;9.38;;;5.93;;
19434;SDS011;9853;50.848;4.108;2022-08-16T08:02:14;15.13;;;6.03;;
19434;SDS011;9853;50.848;4.108;2022-08-16T08:04:16;10.82;;;5.57;;
19434;SDS011;9853;50.848;4.108;2022-08-16T08:06:19;12.98;;;5.40;;
19434;SDS011;9853;50.848;4.108;2022-08-16T08:08:22;16.85;;;6.90;;
19434;SDS011;9853;50.848;4.108;2022-08-16T08:10:23;8.98;;;5.70;;
19434;SDS011;9853;50.848;4.108;2022-08-16T08:12:25;14.00;;;5.85;;
19434;SDS011;9853;50.848;4.108;2022-08-16T08:14:26;11.48;;;6.22;;
19434;SDS011;9853;50.848;4.108;2022-08-16T08:16:27;11.65;;;5.78;;
19434;SDS011;9853;50.848;4.108;2022-08-16T08:18:28;7.07;;;5.28;;
19434;SDS011;9853;50.848;4.108;2022-08-16T08:20:29;8.70;;;5.15;;
19434;SDS011;9853;50.848;4.108;2022-08-16T08:22:32;6.75;;;5.28;;
19434;SDS011;9853;50.848;4.108;2022-08-16T08:24:37;12.98;;;5.90;;
19434;SDS011;9853;50.848;4.108;2022-08-16T08:26:39;7.22;;;4.57;;
19434;SDS011;9853;50.848;4.108;2022-08-16T08:28:41;6.63;;;4.50;;
19434;SDS011;9853;50.848;4.108;2022-08-16T08:30:42;6.07;;;4.60;;
19434;SDS011;9853;50.848;4.108;2022-08-16T08:32:42;4.65;;;4.10;;
19434;SDS011;9853;50.848;4.108;2022-08-16T08:34:43;9.88;;;4.30;;
19434;SDS011;9853;50.848;4.108;2022-08-16T08:36:44;9.35;;;4.47;;
19434;SDS011;9853;50.848;4.108;2022-08-16T08:39:09;9.63;;;4.40;;
19434;SDS011;9853;50.848;4.108;2022-08-16T08:41:10;11.13;;;4.72;;
19434;SDS011;9853;50.848;4.108;2022-08-16T08:43:11;8.68;;;4.20;;
19434;SDS011;9853;50.848;4.108;2022-08-16T08:45:13;7.82;;;3.72;;
19434;SDS011;9853;50.848;4.108;2022-08-16T08:47:15;8.93;;;4.00;;
19434;SDS011;9853;50.848;4.108;2022-08-16T08:49:16;10.60;;;3.95;;
19434;SDS011;9853;50.848;4.108;2022-08-16T08:51:18;6.43;;;4.03;;
19434;SDS011;9853;50.848;4.108;2022-08-16T08:53:27;9.02;;;4.55;;
19434;SDS011;9853;50.848;4.108;2022-08-16T08:55:28;9.70;;;3.92;;
19434;SDS011;9853;50.848;4.108;2022-08-16T08:57:30;6.32;;;4.03;;
19434;SDS011;9853;50.848;4.108;2022-08-16T08:59:50;5.47;;;3.92;;
19434;SDS011;9853;50.848;4.108;2022-08-16T09:01:52;8.50;;;3.58;;
19434;SDS011;9853;50.848;4.108;2022-08-16T09:03:53;9.07;;;3.90;;
19434;SDS011;9853;50.848;4.108;2022-08-16T09:05:55;6.53;;;3.80;;
19434;SDS011;9853;50.848;4.108;2022-08-16T09:07:55;6.78;;;4.45;;
19434;SDS011;9853;50.848;4.108;2022-08-16T09:10:05;7.10;;;3.75;;
19434;SDS011;9853;50.848;4.108;2022-08-16T09:12:10;7.25;;;4.13;;
19434;SDS011;9853;50.848;4.108;2022-08-16T09:14:25;14.15;;;3.80;;
19434;SDS011;9853;50.848;4.108;2022-08-16T09:16:27;5.18;;;3.50;;
19434;SDS011;9853;50.848;4.108;2022-08-16T09:18:28;6.13;;;3.38;;
19434;SDS011;9853;50.848;4.108;2022-08-16T09:20:30;6.53;;;3.40;;
19434;SDS011;9853;50.848;4.108;2022-08-16T09:22:31;6.50;;;3.50;;
19434;SDS011;9853;50.848;4.108;2022-08-16T09:24:33;9.55;;;3.50;;
19434;SDS011;9853;50.848;4.108;2022-08-16T09:26:34;6.78;;;3.85;;
19434;SDS011;9853;50.848;4.108;2022-08-16T09:28:36;7.15;;;3.63;;
19434;SDS011;9853;50.848;4.108;2022-08-16T09:30:44;9.45;;;3.35;;
19434;SDS011;9853;50.848;4.108;2022-08-16T09:32:45;6.68;;;3.60;;
19434;SDS011;9853;50.848;4.108;2022-08-16T09:34:46;7.95;;;4.40;;
19434;SDS011;9853;50.848;4.108;2022-08-16T09:36:47;8.05;;;3.88;;
19434;SDS011;9853;50.848;4.108;2022-08-16T09:38:47;10.75;;;3.58;;
19434;SDS011;9853;50.848;4.108;2022-08-16T09:40:48;7.82;;;3.22;;
19434;SDS011;9853;50.848;4.108;2022-08-16T09:42:49;8.75;;;3.53;;
19434;SDS011;9853;50.848;4.108;2022-08-16T09:44:52;4.50;;;3.30;;
19434;SDS011;9853;50.848;4.108;2022-08-16T09:46:53;7.20;;;3.70;;
19434;SDS011;9853;50.848;4.108;2022-08-16T09:48:55;6.90;;;3.30;;
19434;SDS011;9853;50.848;4.108;2022-08-16T09:50:57;10.18;;;3.10;;
19434;SDS011;9853;50.848;4.108;2022-08-16T09:52:57;4.22;;;2.80;;
19434;SDS011;9853;50.848;4.108;2022-08-16T09:54:58;5.38;;;3.30;;
19434;SDS011;9853;50.848;4.108;2022-08-16T09:56:59;3.83;;;3.30;;
19434;SDS011;9853;50.848;4.108;2022-08-16T09:59:01;6.32;;;3.55;;
19434;SDS011;9853;50.848;4.108;2022-08-16T10:01:04;6.28;;;3.50;;
19434;SDS011;9853;50.848;4.108;2022-08-16T10:03:04;7.60;;;3.75;;
19434;SDS011;9853;50.848;4.108;2022-08-16T10:05:05;10.13;;;3.53;;
19434;SDS011;9853;50.848;4.108;2022-08-16T10:07:06;6.00;;;3.47;;
19434;SDS011;9853;50.848;4.108;2022-08-16T10:09:08;5.75;;;2.90;;
19434;SDS011;9853;50.848;4.108;2022-08-16T10:11:10;10.60;;;3.65;;
19434;SDS011;9853;50.848;4.108;2022-08-16T10:13:30;6.78;;;3.15;;
19434;SDS011;9853;50.848;4.108;2022-08-16T10:15:34;9.23;;;3.40;;
19434;SDS011;9853;50.848;4.108;2022-08-16T10:17:35;6.05;;;3.08;;
19434;SDS011;9853;50.848;4.108;2022-08-16T10:19:40;8.68;;;3.20;;
19434;SDS011;9853;50.848;4.108;2022-08-16T10:21:41;4.93;;;3.13;;
19434;SDS011;9853;50.848;4.108;2022-08-16T10:23:42;7.97;;;3.15;;
19434;SDS011;9853;50.848;4.108;2022-08-16T10:25:44;6.68;;;3.40;;
19434;SDS011;9853;50.848;4.108;2022-08-16T10:27:46;5.18;;;2.90;;
19434;SDS011;9853;50.848;4.108;2022-08-16T10:29:47;5.78;;;3.20;;
19434;SDS011;9853;50.848;4.108;2022-08-16T10:31:47;7.15;;;3.53;;
19434;SDS011;9853;50.848;4.108;2022-08-16T10:33:48;8.70;;;3.53;;
19434;SDS011;9853;50.848;4.108;2022-08-16T10:35:49;5.00;;;3.55;;
19434;SDS011;9853;50.848;4.108;2022-08-16T10:37:50;9.82;;;3.55;;
19434;SDS011;9853;50.848;4.108;2022-08-16T10:39:51;9.20;;;3.83;;
19434;SDS011;9853;50.848;4.108;2022-08-16T10:41:51;10.77;;;4.35;;
19434;SDS011;9853;50.848;4.108;2022-08-16T10:43:52;7.15;;;3.40;;
19434;SDS011;9853;50.848;4.108;2022-08-16T10:45:53;5.20;;;3.30;;
19434;SDS011;9853;50.848;4.108;2022-08-16T10:47:54;12.30;;;3.75;;
19434;SDS011;9853;50.848;4.108;2022-08-16T10:51:56;6.20;;;3.85;;
19434;SDS011;9853;50.848;4.108;2022-08-16T10:53:57;5.97;;;3.50;;
19434;SDS011;9853;50.848;4.108;2022-08-16T10:55:58;5.72;;;3.40;;
19434;SDS011;9853;50.848;4.108;2022-08-16T10:58:08;5.57;;;3.10;;
19434;SDS011;9853;50.848;4.108;2022-08-16T11:00:13;7.68;;;3.03;;
19434;SDS011;9853;50.848;4.108;2022-08-16T11:02:14;6.07;;;3.70;;
19434;SDS011;9853;50.848;4.108;2022-08-16T11:04:15;7.15;;;2.90;;
19434;SDS011;9853;50.848;4.108;2022-08-16T11:06:16;10.43;;;3.05;;
19434;SDS011;9853;50.848;4.108;2022-08-16T11:08:16;6.68;;;3.33;;
19434;SDS011;9853;50.848;4.108;2022-08-16T11:10:18;10.40;;;3.45;;
19434;SDS011;9853;50.848;4.108;2022-08-16T11:12:23;7.65;;;3.10;;
19434;SDS011;9853;50.848;4.108;2022-08-16T11:14:24;6.55;;;3.22;;
19434;SDS011;9853;50.848;4.108;2022-08-16T11:16:25;5.88;;;3.30;;
19434;SDS011;9853;50.848;4.108;2022-08-16T11:18:27;8.40;;;3.80;;
19434;SDS011;9853;50.848;4.108;2022-08-16T11:20:28;6.13;;;3.42;;
19434;SDS011;9853;50.848;4.108;2022-08-16T11:22:29;8.80;;;3.50;;
19434;SDS011;9853;50.848;4.108;2022-08-16T11:24:30;8.98;;;3.22;;
19434;SDS011;9853;50.848;4.108;2022-08-16T11:26:30;6.68;;;3.42;;
19434;SDS011;9853;50.848;4.108;2022-08-16T11:28:32;5.40;;;3.60;;
19434;SDS011;9853;50.848;4.108;2022-08-16T11:30:35;7.53;;;4.43;;
19434;SDS011;9853;50.848;4.108;2022-08-16T11:32:36;9.05;;;3.80;;
19434;SDS011;9853;50.848;4.108;2022-08-16T11:34:36;12.27;;;3.78;;
19434;SDS011;9853;50.848;4.108;2022-08-16T11:36:37;7.45;;;3.58;;
19434;SDS011;9853;50.848;4.108;2022-08-16T11:38:38;9.07;;;3.95;;
19434;SDS011;9853;50.848;4.108;2022-08-16T11:40:40;7.15;;;4.07;;
19434;SDS011;9853;50.848;4.108;2022-08-16T11:42:46;7.70;;;3.95;;
19434;SDS011;9853;50.848;4.108;2022-08-16T11:44:46;5.70;;;3.67;;
19434;SDS011;9853;50.848;4.108;2022-08-16T11:46:47;6.43;;;3.95;;
19434;SDS011;9853;50.848;4.108;2022-08-16T11:48:48;8.40;;;3.90;;
19434;SDS011;9853;50.848;4.108;2022-08-16T11:50:50;6.10;;;3.53;;
19434;SDS011;9853;50.848;4.108;2022-08-16T11:52:51;8.75;;;3.88;;
19434;SDS011;9853;50.848;4.108;2022-08-16T11:54:52;11.38;;;4.43;;
19434;SDS011;9853;50.848;4.108;2022-08-16T11:56:53;5.53;;;3.45;;
19434;SDS011;9853;50.848;4.108;2022-08-16T11:58:53;7.38;;;3.28;;
19434;SDS011;9853;50.848;4.108;2022-08-16T12:00:55;5.72;;;3.97;;
19434;SDS011;9853;50.848;4.108;2022-08-16T12:02:56;7.75;;;3.90;;
19434;SDS011;9853;50.848;4.108;2022-08-16T12:04:57;6.95;;;3.78;;
19434;SDS011;9853;50.848;4.108;2022-08-16T12:06:58;10.10;;;3.50;;
19434;SDS011;9853;50.848;4.108;2022-08-16T12:09:01;7.97;;;3.33;;
19434;SDS011;9853;50.848;4.108;2022-08-16T12:11:03;10.90;;;3.38;;
19434;SDS011;9853;50.848;4.108;2022-08-16T12:13:05;4.68;;;3.42;;
19434;SDS011;9853;50.848;4.108;2022-08-16T12:15:06;9.93;;;3.17;;
19434;SDS011;9853;50.848;4.108;2022-08-16T12:17:08;6.65;;;3.00;;
19434;SDS011;9853;50.848;4.108;2022-08-16T12:19:08;6.50;;;3.33;;
19434;SDS011;9853;50.848;4.108;2022-08-16T12:21:09;6.80;;;3.65;;
19434;SDS011;9853;50.848;4.108;2022-08-16T12:23:11;6.05;;;3.28;;
19434;SDS011;9853;50.848;4.108;2022-08-16T12:25:14;17.50;;;3.50;;